Olympic Valley, CA

5:28 AM PDT on May 23, 2015 (GMT -0700)
Truckee River @ Squaw | | Change Station
CLOSE
Current Station
Personal Weather Station
Location: Olympic Valley, CA
Elevation: 6158 ft
Nearby Weather Stations

Elev 6158 ft 39.21 °N, 120.20 °W | Updated 18 seconds ago

Overcast
Overcast
42.3 °F
Feels Like 42 °F
N
0.0
Wind Variable Wind from SW
Gusts 0.0 mph

Today
High -- | Low -- °F
--% Chance of Precip.
Yesterday
High -- | Low -- °F
Precip. -- in
5:41 AM 8:14 PM
Waxing Crescent, 29% visible
Pressure 30.08 in
Visibility 10.0 miles
Clouds Mostly Cloudy 3000 ft
Mostly Cloudy 3700 ft
Overcast 5000 ft
Windchill 42 °F
Dew Point 42 °F
Humidity 98%
Rainfall 0.07 in
Snow Depth Not available.
UV 0 out of 12
Pollen 6.50 out of 12
Air Quality Not available.
Flu Activity Sporadic
METAR KTRK 231215Z AUTO 00000KT 10SM BKN030 BKN037 OVC050 05/05 A3008 RMK AO2

More Conditions Fewer Conditions

Pressure 30.08 in
Visibility 10.0 miles
Clouds Mostly Cloudy 3000 ft
Mostly Cloudy 3700 ft
Overcast 5000 ft
Windchill 42 °F
Dew Point 42 °F
Humidity 98%
Rainfall 0.07 in
Snow Depth Not available.
UV 0 out of 12
Pollen 6.50 out of 12
Air Quality Not available.
Flu Activity Sporadic
METAR KTRK 231215Z AUTO 00000KT 10SM BKN030 BKN037 OVC050 05/05 A3008 RMK AO2

More Conditions Fewer Conditions

10-Day Weather Forecast

Almanac

Astronomy

May. 23, 2015 Rise Set
Actual Time
Civil Twilight
Nautical Twilight
Astronomical Twilight
Moon
Length of Visible Light
Length of Day
Tomorrow will be .
, % of the Moon is Illuminated

Today's Extremes

State Highs State Lows

Community

WunderPhotos

Upload Photos

1,823,440 photos uploaded!

WunderBlogs® & News

Nearby

Air Quality

  Air Quality AQ Index Pollutant
Not available.

Snow Depth

Station Depth Elevation

Earthquake Activity

City Distance Mag. Time & Date
Minimum magnitude displayed is 2.5.

Coastal Water Temperatures

Place Temperature

Stations

Nearby Weather Stations

Station Location Temp. Windchill Dew Point Humidity Wind Precip. Elev Updated Type